Time;durP1;ratioP1;P1;durP2;ratioP2;P2;SDS_P1;SDS_P2;PMS_P1;PMS_P2;Temp;Humidity;BMP_temperature;BMP_pressure;BME280_temperature;BME280_humidity;BME280_pressure;Samples;Min_cycle;Max_cycle;Signal;HPM_P1;HPM_P2
2024/01/05 00:01:07;;;;;;;4.10;3.15;;;19.30;60.70;;;;;;5042470;28;20044;-68
2024/01/05 00:03:33;;;;;;;4.38;3.25;;;19.30;60.10;;;;;;5043588;28;20037;-67
2024/01/05 00:05:58;;;;;;;3.65;2.92;;;19.30;60.10;;;;;;5028778;28;20040;-68
2024/01/05 00:08:24;;;;;;;4.82;3.40;;;19.20;60.10;;;;;;5042832;28;20124;-68
2024/01/05 00:10:49;;;;;;;5.32;3.72;;;19.20;60.10;;;;;;5066194;23;20041;-54
2024/01/05 00:13:15;;;;;;;3.97;2.97;;;19.30;60.20;;;;;;5040350;28;20470;-53
2024/01/05 00:15:40;;;;;;;4.38;3.00;;;19.20;60.10;;;;;;5040299;28;20052;-50
2024/01/05 00:18:06;;;;;;;4.47;2.70;;;19.20;60.10;;;;;;5039782;28;20494;-50
2024/01/05 00:20:32;;;;;;;3.90;2.85;;;19.20;60.10;;;;;;5041329;28;20068;-51
2024/01/05 00:22:57;;;;;;;4.65;3.10;;;19.20;60.10;;;;;;5040688;28;20029;-49
2024/01/05 00:25:23;;;;;;;4.53;2.70;;;19.20;60.10;;;;;;5039594;28;20646;-51
2024/01/05 00:27:54;;;;;;;5.57;3.65;;;19.20;60.10;;;;;;5039801;28;20089;-51
2024/01/05 00:30:20;;;;;;;4.82;2.47;;;19.20;60.20;;;;;;5040523;28;20074;-50
2024/01/05 00:32:45;;;;;;;4.20;2.67;;;19.20;60.10;;;;;;5042233;28;20112;-51
2024/01/05 00:35:11;;;;;;;4.55;2.83;;;19.20;60.10;;;;;;5045465;28;20612;-50
2024/01/05 00:37:36;;;;;;;4.05;2.70;;;19.20;60.20;;;;;;5044687;28;20033;-49
2024/01/05 00:40:03;;;;;;;3.97;2.83;;;19.20;60.20;;;;;;5044678;28;20450;-52
2024/01/05 00:42:29;;;;;;;3.60;2.53;;;19.20;60.20;;;;;;5041531;28;20501;-50
2024/01/05 00:44:54;;;;;;;4.13;2.55;;;19.20;60.20;;;;;;5044788;28;20029;-54
2024/01/05 00:47:20;;;;;;;3.92;2.70;;;19.20;60.20;;;;;;5043859;28;20517;-50
2024/01/05 00:49:45;;;;;;;4.50;3.00;;;19.20;60.10;;;;;;5045118;28;20795;-50
2024/01/05 00:52:12;;;;;;;3.38;2.35;;;19.20;60.20;;;;;;5044456;28;20032;-50
2024/01/05 00:54:38;;;;;;;3.28;2.30;;;19.20;60.20;;;;;;5045251;28;20159;-53
2024/01/05 00:57:04;;;;;;;3.63;2.70;;;19.20;60.20;;;;;;5044190;28;20108;-51
2024/01/05 00:59:29;;;;;;;5.10;2.28;;;19.20;60.20;;;;;;5039151;28;20108;-50
2024/01/05 01:01:55;;;;;;;3.70;2.75;;;19.20;60.20;;;;;;5044744;28;20768;-51
2024/01/05 01:04:20;;;;;;;4.70;2.40;;;19.20;60.20;;;;;;5044300;28;20076;-50
2024/01/05 01:06:46;;;;;;;4.18;2.60;;;19.10;60.10;;;;;;5044671;28;20120;-49
2024/01/05 01:09:12;;;;;;;4.57;2.65;;;19.20;60.20;;;;;;5046186;28;20029;-49
2024/01/05 01:11:37;;;;;;;3.80;2.10;;;19.10;60.30;;;;;;5046712;28;20036;-50
2024/01/05 01:14:03;;;;;;;5.07;2.85;;;19.10;60.40;;;;;;5043585;28;20211;-52
2024/01/05 01:16:28;;;;;;;3.28;2.25;;;19.10;60.40;;;;;;5042913;28;20487;-53
2024/01/05 01:18:54;;;;;;;3.58;2.20;;;19.10;60.50;;;;;;5043565;28;20528;-49
2024/01/05 01:21:19;;;;;;;3.20;2.33;;;19.00;60.50;;;;;;5043366;28;20033;-56
2024/01/05 01:23:45;;;;;;;3.10;1.83;;;19.00;60.50;;;;;;5044334;28;20033;-52
2024/01/05 01:26:10;;;;;;;3.17;2.00;;;19.00;60.40;;;;;;5043487;28;20087;-49
2024/01/05 01:28:35;;;;;;;2.60;2.25;;;19.00;60.50;;;;;;5043139;28;20064;-53
2024/01/05 01:31:02;;;;;;;5.20;2.22;;;18.90;60.40;;;;;;5041739;28;20033;-50
2024/01/05 01:33:27;;;;;;;3.67;2.03;;;18.90;60.50;;;;;;5044282;28;20504;-51
2024/01/05 01:35:52;;;;;;;3.88;2.05;;;18.90;60.50;;;;;;5043411;28;20029;-56
2024/01/05 01:38:18;;;;;;;4.97;2.35;;;18.90;60.50;;;;;;5042360;28;20025;-50
2024/01/05 01:40:47;;;;;;;3.45;1.98;;;18.90;60.40;;;;;;5043487;28;20033;-55
2024/01/05 01:43:24;;;;;;;2.70;2.10;;;18.80;60.50;;;;;;5036742;28;20029;-55
2024/01/05 01:45:51;;;;;;;4.20;2.10;;;18.80;60.60;;;;;;5039386;28;20187;-50
2024/01/05 01:48:19;;;;;;;3.97;2.28;;;18.80;60.60;;;;;;5038438;28;20032;-49
2024/01/05 01:50:46;;;;;;;4.22;2.38;;;18.80;60.60;;;;;;5041104;28;20036;-53
2024/01/05 01:53:16;;;;;;;2.28;1.80;;;18.80;60.70;;;;;;5039054;28;20058;-53
2024/01/05 01:55:42;;;;;;;2.10;1.77;;;18.80;60.80;;;;;;5038072;28;20040;-48
2024/01/05 01:58:08;;;;;;;2.38;1.70;;;18.80;60.90;;;;;;5038199;28;20021;-53
2024/01/05 02:00:34;;;;;;;3.60;1.80;;;18.80;60.80;;;;;;5040081;28;20758;-51
2024/01/05 02:03:01;;;;;;;3.20;1.85;;;18.70;60.80;;;;;;5039535;28;20037;-50
2024/01/05 02:05:28;;;;;;;3.08;1.83;;;18.70;60.80;;;;;;5039448;28;20029;-53
2024/01/05 02:07:54;;;;;;;2.53;1.98;;;18.70;60.90;;;;;;5038810;28;20388;-52
2024/01/05 02:10:20;;;;;;;1.95;1.55;;;18.70;60.90;;;;;;5039178;28;20079;-55
2024/01/05 02:12:46;;;;;;;3.05;1.83;;;18.70;60.90;;;;;;5038598;28;20435;-51
2024/01/05 02:15:11;;;;;;;1.98;1.50;;;18.70;61.00;;;;;;5039708;28;20028;-51
2024/01/05 02:17:37;;;;;;;2.50;1.67;;;18.70;61.00;;;;;;5039537;28;20040;-50
2024/01/05 02:20:03;;;;;;;3.92;2.10;;;18.70;61.00;;;;;;5040495;28;20167;-54
2024/01/05 02:22:29;;;;;;;2.88;1.60;;;18.70;60.90;;;;;;5039132;28;20033;-50
2024/01/05 02:24:58;;;;;;;3.40;1.77;;;18.70;60.80;;;;;;5043068;28;20087;-51
2024/01/05 02:27:24;;;;;;;2.65;1.33;;;18.80;60.70;;;;;;5042441;28;20029;-49
2024/01/05 02:29:50;;;;;;;3.47;1.55;;;18.90;60.40;;;;;;5043626;28;20596;-49
2024/01/05 02:32:17;;;;;;;2.10;1.40;;;19.10;59.90;;;;;;5042749;28;20025;-50
2024/01/05 02:34:43;;;;;;;2.65;1.73;;;19.40;59.40;;;;;;5045607;28;20029;-51
2024/01/05 02:37:09;;;;;;;2.38;1.50;;;19.60;58.70;;;;;;5040728;28;20650;-51
2024/01/05 02:39:35;;;;;;;3.10;1.65;;;19.90;58.10;;;;;;5043169;28;20033;-52
2024/01/05 02:42:00;;;;;;;3.97;1.42;;;20.10;57.70;;;;;;5042613;28;20040;-50
2024/01/05 02:44:26;;;;;;;1.85;1.30;;;20.40;57.10;;;;;;5038357;28;20037;-54
2024/01/05 02:46:51;;;;;;;2.08;1.48;;;20.60;56.70;;;;;;5040834;28;20036;-53
2024/01/05 02:49:17;;;;;;;2.47;1.58;;;20.80;56.40;;;;;;5038740;28;20119;-51
2024/01/05 02:51:43;;;;;;;2.58;1.13;;;20.90;56.00;;;;;;5039007;28;20040;-51
2024/01/05 02:54:09;;;;;;;1.77;1.33;;;21.00;55.80;;;;;;5037691;28;20383;-53
2024/01/05 02:56:34;;;;;;;1.38;1.15;;;21.20;55.70;;;;;;5038146;28;20044;-52
2024/01/05 02:59:01;;;;;;;2.38;1.40;;;21.30;55.50;;;;;;5037578;28;20030;-51
2024/01/05 03:01:26;;;;;;;1.35;1.25;;;21.30;55.30;;;;;;5033413;28;20057;-52
2024/01/05 03:03:52;;;;;;;2.10;1.27;;;21.40;55.30;;;;;;5032032;28;20083;-48
2024/01/05 03:06:18;;;;;;;1.70;1.10;;;21.40;55.40;;;;;;5031982;28;20056;-51
2024/01/05 03:08:44;;;;;;;2.78;1.17;;;21.30;55.50;;;;;;5025874;28;20132;-59
2024/01/05 03:11:10;;;;;;;1.65;1.20;;;21.30;55.70;;;;;;5029776;28;20591;-51
2024/01/05 03:13:36;;;;;;;1.42;1.08;;;21.20;55.90;;;;;;5036774;28;20035;-54
2024/01/05 03:16:02;;;;;;;3.03;1.17;;;21.10;56.10;;;;;;5040794;28;20028;-51
2024/01/05 03:18:27;;;;;;;2.30;0.95;;;21.00;56.30;;;;;;5037370;28;20041;-50
2024/01/05 03:20:53;;;;;;;1.77;1.15;;;21.00;57.20;;;;;;5041125;28;20037;-50
2024/01/05 03:23:18;;;;;;;1.95;1.30;;;20.80;56.70;;;;;;5041102;28;20045;-51
2024/01/05 03:25:45;;;;;;;1.75;0.93;;;20.70;56.90;;;;;;5040452;28;20033;-58
2024/01/05 03:28:11;;;;;;;1.98;1.38;;;20.70;57.20;;;;;;5041310;28;20102;-52
2024/01/05 03:30:37;;;;;;;2.20;1.10;;;20.60;57.40;;;;;;5042397;28;20104;-52
2024/01/05 03:33:03;;;;;;;1.00;0.73;;;20.50;57.50;;;;;;5039062;28;20128;-51
2024/01/05 03:35:29;;;;;;;1.48;1.20;;;20.40;57.70;;;;;;5040811;28;20379;-51
2024/01/05 03:37:55;;;;;;;2.28;1.20;;;20.40;57.90;;;;;;5040916;28;20086;-49
2024/01/05 03:40:21;;;;;;;1.98;1.20;;;20.30;58.00;;;;;;5038958;28;20036;-53
2024/01/05 03:42:46;;;;;;;1.38;1.08;;;20.30;58.20;;;;;;5042514;28;20124;-50
2024/01/05 03:45:12;;;;;;;1.48;1.30;;;20.20;58.50;;;;;;5041370;28;20024;-51
2024/01/05 03:47:37;;;;;;;1.80;1.10;;;20.20;58.60;;;;;;5039492;28;20035;-51
2024/01/05 03:50:03;;;;;;;1.48;1.00;;;20.10;58.70;;;;;;5041625;28;20025;-52
2024/01/05 03:52:29;;;;;;;2.15;1.17;;;20.00;58.80;;;;;;5039791;28;20086;-53
2024/01/05 03:54:55;;;;;;;1.30;1.05;;;20.00;59.00;;;;;;5039012;28;20079;-52
2024/01/05 03:57:21;;;;;;;1.25;0.82;;;19.90;59.00;;;;;;5040267;28;20029;-50
2024/01/05 03:59:47;;;;;;;1.85;0.95;;;19.90;59.00;;;;;;5041265;28;20032;-50
2024/01/05 04:02:12;;;;;;;2.15;1.35;;;19.80;59.20;;;;;;5049375;22;20048;-52
2024/01/05 04:04:39;;;;;;;1.08;0.80;;;19.80;59.30;;;;;;5035703;28;20120;-52
2024/01/05 04:07:05;;;;;;;2.15;1.00;;;19.70;59.40;;;;;;5036393;28;20091;-50
2024/01/05 04:09:31;;;;;;;1.73;1.00;;;19.70;59.50;;;;;;5041470;28;20029;-51
2024/01/05 04:11:57;;;;;;;1.10;1.00;;;19.60;59.50;;;;;;5040612;28;20583;-51
2024/01/05 04:14:23;;;;;;;1.48;1.00;;;19.60;59.60;;;;;;5031466;28;20072;-50
2024/01/05 04:16:48;;;;;;;1.10;0.90;;;19.50;59.60;;;;;;5033626;28;20034;-51
2024/01/05 04:19:14;;;;;;;1.65;1.10;;;19.50;59.80;;;;;;5034025;28;20505;-52
2024/01/05 04:21:39;;;;;;;2.17;0.90;;;19.50;59.80;;;;;;5030806;28;20117;-53
2024/01/05 04:24:05;;;;;;;2.42;1.00;;;19.40;59.70;;;;;;5033966;28;20041;-49
2024/01/05 04:26:31;;;;;;;1.80;0.98;;;19.40;59.90;;;;;;5033486;28;20040;-53
2024/01/05 04:28:57;;;;;;;2.17;1.10;;;19.40;59.90;;;;;;5031226;28;20037;-50
2024/01/05 04:31:22;;;;;;;1.70;0.90;;;19.30;59.90;;;;;;5029523;28;20125;-51
2024/01/05 04:33:48;;;;;;;1.30;0.98;;;19.30;59.90;;;;;;5036906;28;20087;-52
2024/01/05 04:36:18;;;;;;;1.00;0.90;;;19.30;59.90;;;;;;5035644;28;20460;-50
2024/01/05 04:38:44;;;;;;;1.42;1.15;;;19.20;59.80;;;;;;5030877;28;20040;-51
2024/01/05 04:41:15;;;;;;;1.48;0.85;;;19.20;59.90;;;;;;5036593;28;20025;-53
2024/01/05 04:43:41;;;;;;;1.88;0.80;;;19.20;59.90;;;;;;5035769;28;20061;-50
2024/01/05 04:46:08;;;;;;;3.10;1.00;;;19.20;60.10;;;;;;5033594;28;20053;-50
2024/01/05 04:48:34;;;;;;;1.50;0.80;;;19.20;60.00;;;;;;5032340;28;20032;-50
2024/01/05 04:51:00;;;;;;;1.52;0.70;;;19.20;60.10;;;;;;5036312;28;20034;-53
2024/01/05 04:53:26;;;;;;;1.35;0.90;;;19.10;60.00;;;;;;5032116;28;20025;-54
2024/01/05 04:55:51;;;;;;;1.83;0.90;;;19.10;60.80;;;;;;5034658;28;20033;-51
2024/01/05 04:58:17;;;;;;;1.10;0.70;;;19.10;60.20;;;;;;5031047;28;20387;-52
2024/01/05 05:00:43;;;;;;;1.50;0.93;;;19.10;60.20;;;;;;5034702;28;20033;-55
2024/01/05 05:03:09;;;;;;;1.38;1.00;;;19.00;60.20;;;;;;5033371;28;20037;-52
2024/01/05 05:05:38;;;;;;;1.60;1.00;;;19.00;60.20;;;;;;5031748;28;20037;-51
2024/01/05 05:08:04;;;;;;;1.83;1.02;;;19.00;60.20;;;;;;5032202;28;20461;-51
2024/01/05 05:10:29;;;;;;;1.65;0.80;;;19.00;60.30;;;;;;5032048;28;20053;-51
2024/01/05 05:12:55;;;;;;;1.25;0.70;;;19.00;60.40;;;;;;5033276;28;20038;-53
2024/01/05 05:15:20;;;;;;;1.65;0.80;;;18.90;60.40;;;;;;5033619;28;20029;-51
2024/01/05 05:17:46;;;;;;;2.03;0.70;;;18.90;60.40;;;;;;5035614;28;20036;-50
2024/01/05 05:20:12;;;;;;;1.33;0.80;;;18.90;60.50;;;;;;5032824;28;20025;-54
2024/01/05 05:22:38;;;;;;;1.10;0.57;;;18.90;60.60;;;;;;5032745;28;20022;-51
2024/01/05 05:25:04;;;;;;;0.70;0.60;;;18.90;60.60;;;;;;5035940;28;20074;-53
2024/01/05 05:27:29;;;;;;;1.30;0.90;;;18.80;60.50;;;;;;5030829;28;20032;-51
2024/01/05 05:29:55;;;;;;;2.00;0.98;;;18.80;60.60;;;;;;5035338;28;20025;-50
2024/01/05 05:32:20;;;;;;;1.63;0.60;;;18.90;60.50;;;;;;5032013;28;20053;-50
2024/01/05 05:34:46;;;;;;;2.22;0.82;;;19.10;60.30;;;;;;5032664;28;20033;-53
2024/01/05 05:37:11;;;;;;;1.80;0.90;;;19.20;60.00;;;;;;5035960;28;20475;-51
2024/01/05 05:39:37;;;;;;;0.90;0.70;;;19.40;59.50;;;;;;5033336;28;20037;-50
2024/01/05 05:42:03;;;;;;;1.77;0.80;;;19.60;59.10;;;;;;5033184;28;20406;-51
2024/01/05 05:44:29;;;;;;;1.05;0.70;;;19.80;58.50;;;;;;5032387;28;20380;-50
2024/01/05 05:46:56;;;;;;;1.85;0.90;;;20.00;58.10;;;;;;5032976;28;20509;-51
2024/01/05 05:49:21;;;;;;;1.67;0.50;;;20.10;57.70;;;;;;5033800;28;20162;-50
2024/01/05 05:51:47;;;;;;;1.63;0.82;;;20.30;57.30;;;;;;5033241;28;20086;-51
2024/01/05 05:54:12;;;;;;;1.23;0.60;;;20.50;57.00;;;;;;5041390;22;20119;-50
2024/01/05 05:56:39;;;;;;;1.65;0.80;;;20.60;56.80;;;;;;5039413;28;20044;-51
2024/01/05 05:59:05;;;;;;;1.77;0.80;;;20.70;56.50;;;;;;5041255;28;20041;-53
2024/01/05 06:01:30;;;;;;;1.30;0.55;;;20.90;56.30;;;;;;5035920;28;20036;-50
2024/01/05 06:03:56;;;;;;;0.65;0.60;;;21.00;56.00;;;;;;5043911;28;20048;-50
2024/01/05 06:06:23;;;;;;;1.65;0.85;;;21.10;56.00;;;;;;5040102;28;20037;-49
2024/01/05 06:08:48;;;;;;;1.02;0.73;;;21.20;55.80;;;;;;5040596;28;20191;-54
2024/01/05 06:11:18;;;;;;;2.53;0.95;;;21.20;55.80;;;;;;5041894;28;20638;-52
2024/01/05 06:13:45;;;;;;;0.60;0.50;;;21.20;55.80;;;;;;5041341;28;20429;-54
2024/01/05 06:16:11;;;;;;;1.10;0.73;;;21.10;55.90;;;;;;5026010;28;20617;-53
2024/01/05 06:18:37;;;;;;;0.98;0.50;;;21.10;55.90;;;;;;5039622;28;20037;-54
2024/01/05 06:21:03;;;;;;;2.00;0.60;;;21.10;56.20;;;;;;5036555;28;20040;-53
2024/01/05 06:23:29;;;;;;;1.38;0.73;;;21.00;56.30;;;;;;5034980;28;20036;-52
2024/01/05 06:25:56;;;;;;;1.00;0.60;;;20.90;56.60;;;;;;5041067;28;20037;-52
2024/01/05 06:28:21;;;;;;;1.02;0.50;;;20.90;56.70;;;;;;5036072;28;20527;-50
2024/01/05 06:30:47;;;;;;;0.98;0.40;;;20.80;56.90;;;;;;5033647;28;20159;-53
2024/01/05 06:33:12;;;;;;;0.90;0.60;;;20.70;57.10;;;;;;5041396;28;20116;-52
2024/01/05 06:35:38;;;;;;;1.52;0.65;;;20.60;57.30;;;;;;5038743;28;20036;-50
2024/01/05 06:38:03;;;;;;;1.00;0.60;;;20.60;57.50;;;;;;5036572;28;20494;-50
2024/01/05 06:40:28;;;;;;;1.05;0.80;;;20.50;57.60;;;;;;5040193;28;20030;-47
2024/01/05 06:42:56;;;;;;;1.40;0.68;;;20.40;57.80;;;;;;5038959;28;20569;-48
2024/01/05 06:45:21;;;;;;;0.65;0.50;;;20.30;57.80;;;;;;5035699;28;20028;-52
2024/01/05 06:47:47;;;;;;;0.77;0.47;;;20.30;58.00;;;;;;5041270;28;20120;-54
2024/01/05 06:50:12;;;;;;;1.00;0.55;;;20.20;58.20;;;;;;5038014;28;20120;-53
2024/01/05 06:52:38;;;;;;;0.77;0.68;;;20.20;58.30;;;;;;5038354;28;20033;-52
2024/01/05 06:55:03;;;;;;;1.70;0.57;;;20.10;58.60;;;;;;5041730;28;20028;-52
2024/01/05 06:57:31;;;;;;;0.68;0.50;;;20.10;58.60;;;;;;5035304;28;20391;-51
2024/01/05 06:59:57;;;;;;;1.02;0.70;;;20.00;58.60;;;;;;5042002;28;20021;-50
2024/01/05 07:02:22;;;;;;;1.08;0.80;;;20.00;58.90;;;;;;5037526;28;20087;-50
2024/01/05 07:04:48;;;;;;;1.40;0.90;;;19.90;58.90;;;;;;5040079;28;20032;-51
2024/01/05 07:07:13;;;;;;;1.10;0.75;;;19.80;59.00;;;;;;5037146;28;20053;-50
2024/01/05 07:09:39;;;;;;;1.45;0.70;;;19.80;59.10;;;;;;5038482;28;20035;-49
2024/01/05 07:12:04;;;;;;;2.90;1.10;;;19.80;59.20;;;;;;5035621;28;20437;-51
2024/01/05 07:14:30;;;;;;;1.67;0.88;;;19.70;59.30;;;;;;5038669;28;20052;-51
2024/01/05 07:16:56;;;;;;;2.05;0.85;;;19.70;59.50;;;;;;5039257;28;20029;-51
2024/01/05 07:19:22;;;;;;;2.40;0.93;;;19.60;59.50;;;;;;5035171;28;20040;-52
2024/01/05 07:21:47;;;;;;;1.17;0.88;;;19.60;59.50;;;;;;5042578;28;20033;-52
2024/01/05 07:24:15;;;;;;;1.67;1.10;;;19.60;59.50;;;;;;5041247;28;20149;-50
2024/01/05 07:26:41;;;;;;;2.67;1.20;;;19.50;59.50;;;;;;5046813;28;20041;-51
2024/01/05 07:29:06;;;;;;;1.58;0.98;;;19.50;59.70;;;;;;5041296;28;20079;-49
2024/01/05 07:31:32;;;;;;;2.28;1.02;;;19.50;59.70;;;;;;5037369;28;20501;-47
2024/01/05 07:33:57;;;;;;;1.38;0.93;;;19.40;59.70;;;;;;5037269;28;20141;-50
2024/01/05 07:36:23;;;;;;;1.35;1.00;;;19.40;59.70;;;;;;5040939;28;20037;-52
2024/01/05 07:38:48;;;;;;;1.83;1.10;;;19.40;59.70;;;;;;5038744;28;20025;-50
2024/01/05 07:41:18;;;;;;;1.77;1.05;;;19.30;59.60;;;;;;5040322;28;20048;-50
2024/01/05 07:43:43;;;;;;;2.17;1.40;;;19.30;59.60;;;;;;5040479;28;20083;-51
2024/01/05 07:46:09;;;;;;;2.35;1.20;;;19.30;59.60;;;;;;5037448;28;20021;-52
2024/01/05 07:48:38;;;;;;;3.58;1.60;;;19.30;59.70;;;;;;5039364;28;20040;-51
2024/01/05 07:51:04;;;;;;;2.90;1.30;;;19.20;59.60;;;;;;5041471;28;20084;-55
2024/01/05 07:53:29;;;;;;;3.47;1.33;;;19.20;59.80;;;;;;5035992;28;20080;-50
2024/01/05 07:55:55;;;;;;;2.45;1.45;;;19.20;59.70;;;;;;5041257;28;20465;-52
2024/01/05 07:58:20;;;;;;;4.30;1.48;;;19.20;59.70;;;;;;5038632;28;20036;-60
2024/01/05 08:00:46;;;;;;;2.20;1.70;;;19.20;59.80;;;;;;5036511;28;20814;-54
2024/01/05 08:03:11;;;;;;;2.33;1.38;;;19.20;59.90;;;;;;5039341;28;20033;-51
2024/01/05 08:05:37;;;;;;;2.55;1.50;;;19.20;59.90;;;;;;5038572;28;20025;-51
2024/01/05 08:08:03;;;;;;;2.33;1.27;;;19.10;59.90;;;;;;5037163;28;20068;-50
2024/01/05 08:10:30;;;;;;;2.65;1.80;;;19.10;60.00;;;;;;5039748;28;20159;-49
2024/01/05 08:12:55;;;;;;;3.40;1.90;;;19.10;60.00;;;;;;5038413;28;20033;-51
2024/01/05 08:15:21;;;;;;;2.45;1.80;;;19.00;60.00;;;;;;5039407;28;20112;-52
2024/01/05 08:17:47;;;;;;;3.53;1.70;;;19.00;60.00;;;;;;5039689;28;20068;-52
2024/01/05 08:20:12;;;;;;;3.55;2.38;;;19.00;60.10;;;;;;5039759;28;20070;-49
2024/01/05 08:22:38;;;;;;;6.28;2.78;;;19.00;60.10;;;;;;5038290;28;20025;-49
2024/01/05 08:25:03;;;;;;;5.28;2.28;;;19.00;60.10;;;;;;5041620;28;20490;-51
2024/01/05 08:27:29;;;;;;;4.63;2.45;;;19.00;60.20;;;;;;5037072;28;20045;-46
2024/01/05 08:29:55;;;;;;;6.18;2.72;;;18.90;60.10;;;;;;5039377;28;20029;-47
2024/01/05 08:32:21;;;;;;;5.80;2.58;;;19.00;60.00;;;;;;5001679;28;20037;-50
2024/01/05 08:34:46;;;;;;;3.30;2.40;;;19.00;60.00;;;;;;4999364;28;20453;-50
2024/01/05 08:37:12;;;;;;;5.75;2.33;;;19.10;59.90;;;;;;5038696;28;20661;-50
2024/01/05 08:39:42;;;;;;;4.72;2.65;;;19.20;59.80;;;;;;5035446;28;20033;-50
2024/01/05 08:42:07;;;;;;;4.18;2.70;;;19.40;59.40;;;;;;5033940;28;20044;-49
2024/01/05 08:44:34;;;;;;;4.38;2.50;;;19.60;58.90;;;;;;5033876;28;20048;-50
2024/01/05 08:47:00;;;;;;;4.80;2.13;;;19.80;58.40;;;;;;5031102;28;20242;-50
2024/01/05 08:49:26;;;;;;;5.35;2.08;;;19.90;57.90;;;;;;5029074;28;20394;-49
2024/01/05 08:51:52;;;;;;;3.90;2.10;;;20.20;57.40;;;;;;5034516;28;20043;-47
2024/01/05 08:54:19;;;;;;;8.38;2.72;;;20.40;57.00;;;;;;5033511;28;20033;-49
2024/01/05 08:56:44;;;;;;;3.45;2.03;;;20.60;56.60;;;;;;5031817;28;20045;-51
2024/01/05 08:59:11;;;;;;;3.85;2.30;;;20.70;56.30;;;;;;5033129;28;20036;-48
2024/01/05 09:01:37;;;;;;;3.55;2.22;;;20.90;56.10;;;;;;5033414;28;20037;-50
2024/01/05 09:04:05;;;;;;;2.92;1.75;;;21.00;55.80;;;;;;5032350;28;20037;-51
2024/01/05 09:06:32;;;;;;;4.65;2.20;;;21.10;55.50;;;;;;5037313;28;20394;-50
2024/01/05 09:08:58;;;;;;;3.78;2.28;;;21.20;55.40;;;;;;5023228;28;20033;-50
2024/01/05 09:11:24;;;;;;;4.68;2.25;;;21.30;55.30;;;;;;5034424;28;20253;-52
2024/01/05 09:13:49;;;;;;;4.47;2.20;;;21.40;55.30;;;;;;5035634;28;20125;-50
2024/01/05 09:16:15;;;;;;;5.82;2.33;;;21.40;55.30;;;;;;5036712;28;20036;-52
2024/01/05 09:18:40;;;;;;;3.33;2.08;;;21.40;55.20;;;;;;5039600;28;20041;-49
2024/01/05 09:21:10;;;;;;;2.90;1.80;;;21.30;55.30;;;;;;5043783;28;20040;-52
2024/01/05 09:23:36;;;;;;;3.17;1.90;;;21.20;55.50;;;;;;5040745;28;20545;-53
2024/01/05 09:26:01;;;;;;;3.33;1.90;;;21.20;55.80;;;;;;5042404;28;20037;-53
2024/01/05 09:28:27;;;;;;;3.75;2.10;;;21.10;55.90;;;;;;5041157;28;20037;-48
2024/01/05 09:30:52;;;;;;;3.30;1.83;;;21.10;56.20;;;;;;5041331;28;20099;-53
2024/01/05 09:33:19;;;;;;;2.17;1.65;;;21.00;56.30;;;;;;5040907;28;20033;-52
2024/01/05 09:35:44;;;;;;;3.42;1.60;;;20.90;56.50;;;;;;5043336;28;20040;-55
2024/01/05 09:38:10;;;;;;;2.20;1.60;;;20.90;56.70;;;;;;5040196;28;20041;-53
2024/01/05 09:40:35;;;;;;;3.20;1.60;;;20.80;56.90;;;;;;5042223;28;20037;-49
2024/01/05 09:43:02;;;;;;;4.45;1.92;;;20.70;57.00;;;;;;5042702;28;20047;-50
2024/01/05 09:45:29;;;;;;;2.15;1.70;;;20.60;57.20;;;;;;5038974;28;20036;-50
2024/01/05 09:48:00;;;;;;;3.05;1.70;;;20.60;57.50;;;;;;5041261;28;20386;-49
2024/01/05 09:50:25;;;;;;;3.30;2.03;;;20.50;57.60;;;;;;5038955;28;20033;-50
2024/01/05 09:52:51;;;;;;;3.53;1.50;;;20.40;57.70;;;;;;5040456;28;20504;-50
2024/01/05 09:55:16;;;;;;;3.10;1.88;;;20.40;57.80;;;;;;5041378;28;20574;-50
2024/01/05 09:57:44;;;;;;;3.08;1.63;;;20.30;57.80;;;;;;5039701;28;20029;-54
2024/01/05 10:00:14;;;;;;;3.55;1.58;;;20.30;57.90;;;;;;5037354;28;20029;-48
2024/01/05 10:02:58;;;;;;;2.10;1.50;;;20.30;58.00;;;;;;5040222;28;20033;-54
2024/01/05 10:05:23;;;;;;;3.33;1.80;;;20.20;58.00;;;;;;5035497;28;20030;-48
2024/01/05 10:07:49;;;;;;;3.83;1.90;;;20.20;58.20;;;;;;5043321;28;20031;-48
2024/01/05 10:10:14;;;;;;;3.13;1.55;;;20.10;58.30;;;;;;5041257;28;20203;-53
2024/01/05 10:12:40;;;;;;;2.17;1.33;;;20.00;58.40;;;;;;5042037;28;20512;-53
2024/01/05 10:15:06;;;;;;;2.08;1.55;;;20.00;58.50;;;;;;5042703;28;20032;-54
2024/01/05 10:17:33;;;;;;;2.38;1.60;;;19.90;58.60;;;;;;5042150;28;20021;-54
2024/01/05 10:20:13;;;;;;;3.03;1.48;;;19.90;59.40;;;;;;5040804;28;20059;-52
2024/01/05 10:22:39;;;;;;;1.52;1.35;;;19.80;58.60;;;;;;5040909;28;20029;-53
2024/01/05 10:25:15;;;;;;;2.67;1.45;;;19.80;58.70;;;;;;5057629;28;20108;-51
2024/01/05 10:27:40;;;;;;;3.22;1.40;;;19.80;58.70;;;;;;5040423;28;20120;-54
2024/01/05 10:30:06;;;;;;;2.47;1.55;;;19.70;58.60;;;;;;5042268;28;20519;-54
2024/01/05 10:32:32;;;;;;;3.40;1.40;;;19.70;58.70;;;;;;5042092;28;20044;-54
2024/01/05 10:34:57;;;;;;;2.30;1.50;;;19.60;58.70;;;;;;5037951;28;20987;-53
2024/01/05 10:37:23;;;;;;;2.67;1.60;;;19.60;58.90;;;;;;5034845;28;20760;-52
2024/01/05 10:39:58;;;;;;;2.67;1.50;;;19.60;59.50;;;;;;5032442;28;20033;-53
2024/01/05 10:42:27;;;;;;;2.70;1.20;;;19.50;59.00;;;;;;5030516;28;20701;-48
2024/01/05 10:44:55;;;;;;;2.30;1.25;;;19.50;59.10;;;;;;5030069;28;20126;-51
2024/01/05 10:47:22;;;;;;;2.70;1.45;;;19.50;59.10;;;;;;5025843;28;20033;-55
2024/01/05 10:49:52;;;;;;;1.15;1.02;;;19.40;59.10;;;;;;5034724;28;20041;-50
2024/01/05 10:52:23;;;;;;;2.03;1.42;;;19.40;59.10;;;;;;5035862;28;20238;-54
2024/01/05 10:54:52;;;;;;;2.20;1.10;;;19.40;59.20;;;;;;5035812;28;20058;-53
2024/01/05 10:57:18;;;;;;;1.45;1.02;;;19.40;59.10;;;;;;5038791;28;20056;-55
2024/01/05 10:59:51;;;;;;;3.40;1.40;;;19.40;59.20;;;;;;5038422;28;20086;-52
2024/01/05 11:02:40;;;;;;;2.88;1.50;;;19.40;59.30;;;;;;5040352;28;20028;-50
2024/01/05 11:05:13;;;;;;;2.60;1.20;;;19.40;59.30;;;;;;5031468;28;20040;-53
2024/01/05 11:07:41;;;;;;;1.75;1.00;;;19.40;59.20;;;;;;5039613;28;20053;-54
2024/01/05 11:10:22;;;;;;;2.15;0.88;;;19.30;59.30;;;;;;5040781;28;20120;-49
2024/01/05 11:13:10;;;;;;;4.18;1.13;;;19.30;59.30;;;;;;5038568;28;20063;-52
2024/01/05 11:15:58;;;;;;;2.47;1.48;;;19.30;59.30;;;;;;5039099;28;20029;-50
2024/01/05 11:18:42;;;;;;;1.50;1.00;;;19.30;59.20;;;;;;5038394;28;20465;-55
2024/01/05 11:21:19;;;;;;;1.55;1.10;;;19.30;59.40;;;;;;5040684;28;20082;-49
2024/01/05 11:23:44;;;;;;;3.28;1.30;;;19.20;59.30;;;;;;5043506;28;20051;-50
2024/01/05 11:26:34;;;;;;;1.42;0.95;;;19.20;59.30;;;;;;5041070;28;20067;-52
2024/01/05 11:29:00;;;;;;;1.88;1.55;;;19.20;59.50;;;;;;5039193;28;20033;-54
2024/01/05 11:31:49;;;;;;;3.80;1.40;;;19.20;59.40;;;;;;5041086;28;20082;-50
2024/01/05 11:34:35;;;;;;;1.77;1.17;;;19.10;59.50;;;;;;5040094;28;20079;-49
2024/01/05 11:37:02;;;;;;;3.15;1.67;;;19.20;59.70;;;;;;5037387;28;20068;-55
2024/01/05 11:39:47;;;;;;;3.35;1.80;;;19.10;59.60;;;;;;5042611;28;20052;-53
2024/01/05 11:42:30;;;;;;;2.37;2.00;;;19.10;59.70;;;;;;5039092;28;20457;-54
2024/01/05 11:44:57;;;;;;;6.28;3.15;;;19.00;60.40;;;;;;5040858;28;20029;-49
2024/01/05 11:47:40;;;;;;;7.38;3.20;;;19.10;59.90;;;;;;5042102;28;20615;-50
2024/01/05 11:50:28;;;;;;;6.57;3.70;;;19.00;59.90;;;;;;5042761;28;20033;-48
2024/01/05 11:53:16;;;;;;;5.43;3.35;;;19.00;59.80;;;;;;5036192;28;20112;-51
2024/01/05 11:55:47;;;;;;;7.57;4.38;;;19.10;59.80;;;;;;5044852;28;20636;-50
2024/01/05 11:58:18;;;;;;;6.78;4.10;;;19.20;59.50;;;;;;5040406;28;20701;-52
2024/01/05 12:00:46;;;;;;;11.02;5.30;;;19.30;59.40;;;;;;5039962;28;20494;-51
2024/01/05 12:03:11;;;;;;;9.45;4.45;;;19.40;59.00;;;;;;5040372;28;20033;-52
2024/01/05 12:05:38;;;;;;;10.55;4.85;;;19.60;58.60;;;;;;5040473;28;20031;-48
2024/01/05 12:08:11;;;;;;;10.20;4.93;;;19.80;58.20;;;;;;5039749;28;20025;-55
2024/01/05 12:10:39;;;;;;;11.15;5.10;;;20.00;57.90;;;;;;5038737;28;20386;-56
2024/01/05 12:13:05;;;;;;;9.93;5.10;;;20.10;57.40;;;;;;5040221;28;20033;-54
2024/01/05 12:15:31;;;;;;;10.75;5.60;;;20.30;57.10;;;;;;5040511;28;20120;-50
2024/01/05 12:18:09;;;;;;;9.40;4.85;;;20.40;56.90;;;;;;5039697;28;20116;-51
2024/01/05 12:20:35;;;;;;;10.02;5.07;;;20.50;56.60;;;;;;5039555;28;20117;-50
2024/01/05 12:23:02;;;;;;;9.00;4.88;;;20.60;56.50;;;;;;5041226;28;20124;-52
2024/01/05 12:25:27;;;;;;;10.68;4.90;;;20.70;56.20;;;;;;5037619;28;20029;-48
2024/01/05 12:27:53;;;;;;;9.98;5.03;;;20.80;56.00;;;;;;5039807;28;20042;-52
2024/01/05 12:30:21;;;;;;;7.90;4.35;;;20.90;56.00;;;;;;5043730;28;20041;-52
2024/01/05 12:32:47;;;;;;;11.77;4.78;;;20.90;56.00;;;;;;5043970;28;20029;-50
2024/01/05 12:35:13;;;;;;;11.10;4.57;;;20.90;55.90;;;;;;5043098;28;20495;-51
2024/01/05 12:37:55;;;;;;;6.35;4.55;;;20.90;56.00;;;;;;5038947;28;20044;-55
2024/01/05 12:40:23;;;;;;;9.25;4.60;;;20.90;56.00;;;;;;5043942;28;20043;-52
2024/01/05 12:42:49;;;;;;;7.38;4.43;;;20.90;56.10;;;;;;5044179;28;20091;-51
2024/01/05 12:45:16;;;;;;;10.75;4.45;;;20.90;56.30;;;;;;5043822;28;20025;-52